STN weather

London Stansted Airport
London, England, United Kingdom

Public forecast

Using degrees Celsius for public forecast. Weather courtesy of forecast.io.

METAR (pilot weather report)

Retrieved 2017/03/24 21:20 UTC (28 minutes ago):

EGSS 242120Z AUTO 04009KT 9999 NCD 05/03 Q1033

TAF (pilot weather forecast)

Retrieved 2017/03/24 18:15 UTC (4 hours ago):

TAF EGSS 241653Z 2418/2524 06012KT 9999 FEW030 PROB30 2500/2508 6000